Time;durP1;ratioP1;P1;durP2;ratioP2;P2;SDS_P1;SDS_P2;PMS_P1;PMS_P2;Temp;Humidity;BMP_temperature;BMP_pressure;BME280_temperature;BME280_humidity;BME280_pressure;Samples;Min_cycle;Max_cycle;Signal;HPM_P1;HPM_P2
2022/11/29 00:00:34;;;;;;;28.35;15.70;;;2.80;99.90;;;;;;4952524;28;20034;-83
2022/11/29 00:03:00;;;;;;;26.90;15.48;;;2.90;99.90;;;;;;4970252;28;20034;-82
2022/11/29 00:05:27;;;;;;;30.45;15.52;;;2.80;99.90;;;;;;4956469;28;20045;-82
2022/11/29 00:07:53;;;;;;;28.25;15.23;;;2.80;99.90;;;;;;4983730;28;20033;-83
2022/11/29 00:10:18;;;;;;;28.02;15.30;;;2.90;99.90;;;;;;4938869;28;20596;-82
2022/11/29 00:12:47;;;;;;;31.65;15.70;;;2.90;99.90;;;;;;4939932;28;20102;-83
2022/11/29 00:15:14;;;;;;;27.85;15.80;;;2.90;99.90;;;;;;4956214;28;20468;-82
2022/11/29 00:17:40;;;;;;;29.75;15.27;;;2.90;99.90;;;;;;4973037;28;20121;-82
2022/11/29 00:20:09;;;;;;;29.73;15.93;;;2.90;99.90;;;;;;4972851;28;20038;-82
2022/11/29 00:22:35;;;;;;;29.92;16.27;;;2.90;99.90;;;;;;4968163;28;20046;-83
2022/11/29 00:25:00;;;;;;;29.83;16.25;;;2.90;99.90;;;;;;4975655;28;20042;-82
2022/11/29 00:27:26;;;;;;;28.30;15.68;;;2.90;99.90;;;;;;4970792;28;20182;-82
2022/11/29 00:29:52;;;;;;;29.05;16.15;;;2.90;99.90;;;;;;4953781;28;20455;-81
2022/11/29 00:32:17;;;;;;;29.67;14.73;;;2.90;99.90;;;;;;4987817;28;20038;-83
2022/11/29 00:34:43;;;;;;;30.88;16.50;;;2.90;99.90;;;;;;4940728;28;20030;-82
2022/11/29 00:37:09;;;;;;;28.83;16.45;;;2.90;99.90;;;;;;4972932;28;20129;-82
2022/11/29 00:39:35;;;;;;;29.10;15.38;;;2.90;99.90;;;;;;4957488;28;20117;-83
2022/11/29 00:42:01;;;;;;;30.75;16.55;;;2.90;99.90;;;;;;4981548;28;20041;-82
2022/11/29 00:44:27;;;;;;;30.55;16.30;;;2.80;99.90;;;;;;4956380;28;20043;-83
2022/11/29 00:46:52;;;;;;;29.85;16.80;;;2.90;99.90;;;;;;4983403;28;20046;-82
2022/11/29 00:49:18;;;;;;;28.80;15.38;;;2.90;99.90;;;;;;5004616;28;20125;-82
2022/11/29 00:51:45;;;;;;;30.13;16.63;;;2.90;99.90;;;;;;5001261;28;20542;-82
2022/11/29 00:54:11;;;;;;;31.90;15.77;;;2.90;99.90;;;;;;4956179;28;20671;-83
2022/11/29 00:56:37;;;;;;;30.10;16.75;;;2.90;99.90;;;;;;4963031;28;20037;-82
2022/11/29 00:59:03;;;;;;;30.58;15.68;;;2.90;99.90;;;;;;4996783;28;20038;-82
2022/11/29 01:01:29;;;;;;;29.63;15.45;;;2.90;99.90;;;;;;5004240;28;20031;-83
2022/11/29 01:03:55;;;;;;;30.05;16.05;;;2.90;99.90;;;;;;4947026;28;20431;-83
2022/11/29 01:06:20;;;;;;;31.77;16.80;;;3.00;99.90;;;;;;5002050;28;20050;-83
2022/11/29 01:08:47;;;;;;;29.00;15.88;;;3.00;99.90;;;;;;4986958;28;20086;-83
2022/11/29 01:11:20;;;;;;;30.08;16.27;;;3.00;99.90;;;;;;4984592;28;20042;-82
2022/11/29 01:13:47;;;;;;;29.63;15.45;;;3.00;99.90;;;;;;4955865;28;20066;-82
2022/11/29 01:16:14;;;;;;;31.38;16.27;;;3.00;99.90;;;;;;4944736;28;20042;-82
2022/11/29 01:18:40;;;;;;;26.88;14.98;;;3.00;99.90;;;;;;4988642;28;20034;-82
2022/11/29 01:21:15;;;;;;;30.52;15.82;;;3.00;99.90;;;;;;4994369;28;20395;-82
2022/11/29 01:23:42;;;;;;;29.40;15.88;;;3.00;99.90;;;;;;4986761;28;20181;-82
2022/11/29 01:26:14;;;;;;;31.00;16.45;;;3.00;99.90;;;;;;5003011;28;20104;-82
2022/11/29 01:28:47;;;;;;;26.70;15.48;;;3.00;99.90;;;;;;4941184;28;20038;-83
2022/11/29 01:31:15;;;;;;;31.52;15.60;;;2.90;99.90;;;;;;4969051;28;20132;-82
2022/11/29 01:33:41;;;;;;;28.42;16.15;;;3.00;99.90;;;;;;4950743;28;20479;-82
2022/11/29 01:36:08;;;;;;;29.08;15.65;;;3.00;99.90;;;;;;4998114;28;20045;-83
2022/11/29 01:38:35;;;;;;;27.98;15.40;;;3.00;99.90;;;;;;4942083;28;20722;-83
2022/11/29 01:41:09;;;;;;;30.75;15.45;;;3.00;99.90;;;;;;4973677;28;20026;-82
2022/11/29 01:43:58;;;;;;;29.88;15.52;;;3.00;99.90;;;;;;4972295;28;20042;-83
2022/11/29 01:46:24;;;;;;;29.25;15.45;;;3.00;99.90;;;;;;4984533;28;20151;-83
2022/11/29 01:48:56;;;;;;;30.50;17.02;;;3.00;99.90;;;;;;4993462;28;20042;-82
2022/11/29 01:51:22;;;;;;;28.80;15.70;;;3.00;99.90;;;;;;4980312;28;20661;-82
2022/11/29 01:53:48;;;;;;;29.35;16.65;;;3.00;99.90;;;;;;4957318;28;20038;-83
2022/11/29 01:56:15;;;;;;;27.65;14.82;;;2.90;99.90;;;;;;4994264;28;20034;-82
2022/11/29 01:58:43;;;;;;;27.70;15.57;;;2.90;99.90;;;;;;4966843;28;20089;-82
2022/11/29 02:01:10;;;;;;;31.48;16.50;;;2.90;99.90;;;;;;4964321;28;20093;-83
2022/11/29 02:03:36;;;;;;;28.13;15.13;;;2.90;99.90;;;;;;4972214;28;20707;-83
2022/11/29 02:06:03;;;;;;;29.65;16.27;;;2.90;99.90;;;;;;4971038;28;20042;-82
2022/11/29 02:08:36;;;;;;;31.63;15.45;;;2.90;99.90;;;;;;4972700;28;20030;-82
2022/11/29 02:11:25;;;;;;;28.80;15.10;;;3.00;99.90;;;;;;4994184;28;20042;-82
2022/11/29 02:14:17;;;;;;;28.77;16.10;;;2.90;99.90;;;;;;4972949;28;20033;-82
2022/11/29 02:17:14;;;;;;;29.73;15.27;;;3.00;99.90;;;;;;4972977;28;20034;-83
2022/11/29 02:20:22;;;;;;;28.88;14.38;;;3.00;99.90;;;;;;4989787;28;20037;-82
2022/11/29 02:23:08;;;;;;;27.73;14.55;;;2.90;99.90;;;;;;4965098;28;20451;-83
2022/11/29 02:25:56;;;;;;;27.27;14.55;;;2.80;99.90;;;;;;5004966;28;20022;-83
2022/11/29 02:28:43;;;;;;;31.13;15.93;;;2.80;99.90;;;;;;4984181;28;20027;-82
2022/11/29 02:31:47;;;;;;;28.52;14.90;;;2.80;99.90;;;;;;4974781;28;20030;-83
2022/11/29 02:34:50;;;;;;;28.65;15.55;;;2.80;99.90;;;;;;4979999;28;20034;-83
2022/11/29 02:37:45;;;;;;;25.83;14.85;;;2.80;99.90;;;;;;4989360;28;20097;-81
2022/11/29 02:40:32;;;;;;;30.80;16.33;;;2.80;99.90;;;;;;4973073;28;20085;-82
2022/11/29 02:43:28;;;;;;;31.35;16.27;;;2.80;99.90;;;;;;4998103;28;20039;-82
2022/11/29 02:45:54;;;;;;;;;;;2.80;99.90;;;;;;4991427;28;20400;-82
2022/11/29 02:48:35;;;;;;;28.55;14.63;;;2.80;99.90;;;;;;4985294;28;19920;-82
2022/11/29 02:51:10;;;;;;;27.90;15.50;;;2.80;99.90;;;;;;4988563;28;20040;-82
2022/11/29 02:53:46;;;;;;;26.80;14.45;;;2.90;99.90;;;;;;4993033;28;20062;-82
2022/11/29 02:56:36;;;;;;;29.83;15.73;;;2.90;99.90;;;;;;4972441;28;20651;-82
2022/11/29 02:59:17;;;;;;;29.88;15.80;;;2.90;99.90;;;;;;4971825;28;20035;-83
2022/11/29 03:02:00;;;;;;;29.52;16.88;;;2.90;99.90;;;;;;4988762;28;20026;-82
2022/11/29 03:04:39;;;;;;;29.90;15.88;;;2.90;99.90;;;;;;4989660;28;20034;-83
2022/11/29 03:07:23;;;;;;;29.50;15.30;;;2.90;99.90;;;;;;4989123;28;20644;-81
2022/11/29 03:10:11;;;;;;;30.92;16.90;;;2.90;99.90;;;;;;4987263;28;20042;-82
2022/11/29 03:12:46;;;;;;;27.85;15.45;;;2.90;99.90;;;;;;4972216;28;20088;-82
2022/11/29 03:15:24;;;;;;;29.77;15.93;;;3.00;99.90;;;;;;4963713;28;20069;-82
2022/11/29 03:18:11;;;;;;;29.60;15.98;;;3.00;99.90;;;;;;4984790;28;20034;-83
2022/11/29 03:20:56;;;;;;;30.30;16.27;;;3.00;99.90;;;;;;4983433;28;20073;-82
2022/11/29 03:23:25;;;;;;;30.17;15.95;;;3.00;99.90;;;;;;4972050;28;20072;-83
2022/11/29 03:25:56;;;;;;;30.60;16.60;;;3.00;99.90;;;;;;4978990;28;20125;-83
2022/11/29 03:29:00;;;;;;;26.50;15.15;;;3.00;99.90;;;;;;4983948;28;20106;-83
2022/11/29 03:31:48;;;;;;;31.05;15.57;;;3.00;99.90;;;;;;4958505;28;20563;-82
2022/11/29 03:34:14;;;;;;;31.25;16.80;;;2.90;99.90;;;;;;4964196;28;20134;-81
2022/11/29 03:36:59;;;;;;;31.48;16.05;;;2.90;99.90;;;;;;5000431;28;20149;-82
2022/11/29 03:39:40;;;;;;;31.48;15.80;;;2.90;99.90;;;;;;4976669;28;20060;-81
2022/11/29 03:42:30;;;;;;;29.80;15.77;;;2.90;99.90;;;;;;4989644;28;20026;-83
2022/11/29 03:45:01;;;;;;;27.85;15.43;;;2.90;99.90;;;;;;4995435;28;20031;-81
2022/11/29 03:47:44;;;;;;;29.33;15.73;;;2.90;99.90;;;;;;5005948;28;20034;-81
2022/11/29 03:50:13;;;;;;;31.42;16.23;;;2.90;99.90;;;;;;4973239;28;20030;-82
2022/11/29 03:52:53;;;;;;;32.95;15.80;;;2.90;99.90;;;;;;4981276;28;20034;-82
2022/11/29 03:55:55;;;;;;;32.95;16.98;;;2.90;99.90;;;;;;4987883;28;20022;-82
2022/11/29 03:58:48;;;;;;;35.45;16.25;;;2.90;99.90;;;;;;4983904;28;20038;-81
2022/11/29 04:01:20;;;;;;;29.30;15.32;;;2.90;99.90;;;;;;4991314;28;20041;-82
2022/11/29 04:04:34;;;;;;;31.10;16.48;;;2.90;99.90;;;;;;5000856;28;20076;-81
2022/11/29 04:06:59;;;;;;;32.42;16.27;;;3.00;99.90;;;;;;4969190;28;20105;-81
2022/11/29 04:10:03;;;;;;;32.28;16.15;;;3.00;99.90;;;;;;4989183;28;20455;-81
2022/11/29 04:12:47;;;;;;;32.15;16.52;;;3.00;99.90;;;;;;4994134;28;20068;-82
2022/11/29 04:15:25;;;;;;;29.83;15.32;;;3.00;99.90;;;;;;4972873;28;20038;-82
2022/11/29 04:18:14;;;;;;;28.05;15.38;;;3.00;99.90;;;;;;4989266;28;20037;-82
2022/11/29 04:21:17;;;;;;;30.38;15.82;;;3.00;99.90;;;;;;4954807;28;20046;-81
2022/11/29 04:23:49;;;;;;;31.30;15.73;;;3.00;99.90;;;;;;4988735;28;20031;-82
2022/11/29 04:26:33;;;;;;;34.85;17.42;;;3.00;99.90;;;;;;5001662;28;20057;-81
2022/11/29 04:29:08;;;;;;;28.83;16.48;;;3.00;99.90;;;;;;4969061;28;20038;-82
2022/11/29 04:31:43;;;;;;;29.88;16.30;;;3.00;99.90;;;;;;4989716;28;20035;-83
2022/11/29 04:34:22;;;;;;;;;;;3.00;99.90;;;;;;4974185;28;20034;-82
2022/11/29 04:37:25;;;;;;;28.33;15.68;;;3.00;99.90;;;;;;4989422;28;19921;-82
2022/11/29 04:40:11;;;;;;;34.08;15.98;;;3.00;99.90;;;;;;4993075;28;20026;-83
2022/11/29 04:42:52;;;;;;;27.42;15.52;;;2.90;99.90;;;;;;4948343;28;20045;-83
2022/11/29 04:45:37;;;;;;;29.25;15.02;;;2.90;99.90;;;;;;4973484;28;20395;-83
2022/11/29 04:48:20;;;;;;;30.45;16.02;;;2.90;99.90;;;;;;4981130;28;20064;-82
2022/11/29 04:51:20;;;;;;;33.67;16.83;;;2.90;99.90;;;;;;4944200;28;20081;-81
2022/11/29 04:54:10;;;;;;;29.65;15.85;;;3.00;99.90;;;;;;4973401;28;20522;-82
2022/11/29 04:56:44;;;;;;;29.17;15.77;;;3.00;99.90;;;;;;4986397;28;20414;-82
2022/11/29 04:59:19;;;;;;;31.17;15.63;;;3.00;99.90;;;;;;4951158;28;20034;-83
2022/11/29 05:01:59;;;;;;;32.15;16.23;;;3.00;99.90;;;;;;4970888;28;20026;-81
2022/11/29 05:04:45;;;;;;;31.73;15.88;;;3.00;99.90;;;;;;4938674;28;20130;-82
2022/11/29 05:07:24;;;;;;;30.52;16.10;;;3.00;99.90;;;;;;4982958;28;20037;-82
2022/11/29 05:09:59;;;;;;;30.83;16.52;;;3.00;99.90;;;;;;4974754;28;20061;-82
2022/11/29 05:12:52;;;;;;;29.63;16.73;;;3.00;99.90;;;;;;4978456;28;20114;-82
2022/11/29 05:15:39;;;;;;;28.17;14.48;;;3.00;99.90;;;;;;5000988;28;20117;-83
2022/11/29 05:18:17;;;;;;;32.05;16.65;;;3.00;99.90;;;;;;4982021;28;20104;-82
2022/11/29 05:20:57;;;;;;;29.60;16.00;;;2.90;99.90;;;;;;4965839;28;20112;-82
2022/11/29 05:23:30;;;;;;;34.03;15.88;;;2.90;99.90;;;;;;4993387;28;20030;-82
2022/11/29 05:26:08;;;;;;;31.63;16.20;;;2.90;99.90;;;;;;4992743;28;20030;-83
2022/11/29 05:28:57;;;;;;;31.40;15.45;;;3.00;99.90;;;;;;4945733;28;20159;-81
2022/11/29 05:31:37;;;;;;;30.33;15.75;;;2.90;99.90;;;;;;4983150;28;20030;-82
2022/11/29 05:34:48;;;;;;;28.23;15.63;;;2.90;99.90;;;;;;4976313;28;20133;-82
2022/11/29 05:37:24;;;;;;;26.33;14.00;;;3.00;99.90;;;;;;4972166;28;20027;-81
2022/11/29 05:40:00;;;;;;;27.73;15.90;;;3.00;99.90;;;;;;4976207;28;20031;-82
2022/11/29 05:42:35;;;;;;;;;;;3.00;99.90;;;;;;4975422;28;20121;-82
2022/11/29 05:45:29;;;;;;;28.13;15.70;;;3.00;99.90;;;;;;4989003;28;19909;-81
2022/11/29 05:48:02;;;;;;;26.33;14.68;;;3.00;99.90;;;;;;4993608;28;20069;-81
2022/11/29 05:50:36;;;;;;;29.88;14.00;;;3.00;99.90;;;;;;4993787;28;20530;-82
2022/11/29 05:53:37;;;;;;;29.77;15.02;;;3.00;99.90;;;;;;4960863;28;20480;-83
2022/11/29 05:56:53;;;;;;;28.35;15.25;;;3.00;99.90;;;;;;4975082;28;20045;-83
2022/11/29 05:59:26;;;;;;;30.27;14.40;;;3.00;99.90;;;;;;4948886;28;20034;-82
2022/11/29 06:01:56;;;;;;;28.75;14.75;;;3.00;99.90;;;;;;4983027;28;20042;-81
2022/11/29 06:04:46;;;;;;;28.25;14.63;;;3.00;99.90;;;;;;4976189;28;20105;-82
2022/11/29 06:07:21;;;;;;;28.23;13.35;;;3.10;99.90;;;;;;4992300;28;20026;-81
2022/11/29 06:09:53;;;;;;;26.80;14.77;;;3.10;99.90;;;;;;4975893;28;20034;-82
2022/11/29 06:12:21;;;;;;;28.27;15.05;;;3.10;99.90;;;;;;4974257;28;20074;-82
2022/11/29 06:15:23;;;;;;;29.52;14.95;;;3.10;99.90;;;;;;4975935;28;20041;-83
2022/11/29 06:18:08;;;;;;;25.23;14.05;;;3.10;99.90;;;;;;4956539;28;20039;-82
2022/11/29 06:21:01;;;;;;;30.23;14.55;;;3.10;99.90;;;;;;4964705;28;20475;-83
2022/11/29 06:23:58;;;;;;;27.67;14.75;;;3.10;99.90;;;;;;4971908;28;20046;-82
2022/11/29 06:26:35;;;;;;;29.60;15.02;;;3.10;99.90;;;;;;4959676;28;20600;-83
2022/11/29 06:29:19;;;;;;;28.85;14.77;;;3.10;99.90;;;;;;4988059;28;20057;-82
2022/11/29 06:32:25;;;;;;;25.98;14.63;;;3.10;99.90;;;;;;4981417;28;20461;-82
2022/11/29 06:35:24;;;;;;;26.83;13.68;;;3.10;99.90;;;;;;4943032;28;20038;-83
2022/11/29 06:37:52;;;;;;;26.52;13.85;;;3.10;99.90;;;;;;4966471;28;20062;-83
2022/11/29 06:40:18;;;;;;;27.27;14.43;;;3.10;99.90;;;;;;4991652;28;20465;-82
2022/11/29 06:42:44;;;;;;;24.10;13.88;;;3.10;99.90;;;;;;4942919;28;20098;-82
2022/11/29 06:45:12;;;;;;;28.35;14.52;;;3.10;99.90;;;;;;4975314;28;20041;-82
2022/11/29 06:47:45;;;;;;;29.42;14.77;;;3.20;99.90;;;;;;4943147;28;20096;-83
2022/11/29 06:50:36;;;;;;;28.45;14.15;;;3.10;99.90;;;;;;4975175;28;20037;-83
2022/11/29 06:53:14;;;;;;;26.70;13.13;;;3.20;99.90;;;;;;4990747;28;20084;-83
2022/11/29 06:55:52;;;;;;;31.40;15.43;;;3.20;99.90;;;;;;4959601;28;20090;-82
2022/11/29 06:58:38;;;;;;;27.70;13.75;;;3.20;99.90;;;;;;4980410;28;20537;-83
2022/11/29 07:01:21;;;;;;;27.98;14.25;;;3.30;99.90;;;;;;4972048;28;20038;-82
2022/11/29 07:04:05;;;;;;;25.27;14.00;;;3.30;99.90;;;;;;4974480;28;20046;-82
2022/11/29 07:06:32;;;;;;;23.50;13.40;;;3.30;99.90;;;;;;4958487;28;20038;-82
2022/11/29 07:09:02;;;;;;;28.60;14.02;;;3.30;99.90;;;;;;4974997;28;20081;-83
2022/11/29 07:11:28;;;;;;;25.73;13.43;;;3.20;99.90;;;;;;4990409;28;20046;-83
2022/11/29 07:13:54;;;;;;;24.65;13.07;;;3.30;99.90;;;;;;4972106;28;20034;-82
2022/11/29 07:16:36;;;;;;;26.67;14.85;;;3.30;99.90;;;;;;4984457;28;20038;-83
2022/11/29 07:19:35;;;;;;;27.55;14.23;;;3.30;99.90;;;;;;4974482;28;20022;-82
2022/11/29 07:22:30;;;;;;;25.98;13.68;;;3.30;99.90;;;;;;4990130;28;20036;-83
2022/11/29 07:25:15;;;;;;;26.02;13.52;;;3.30;99.90;;;;;;4970579;28;20030;-82
2022/11/29 07:28:13;;;;;;;27.08;14.10;;;3.30;99.90;;;;;;4971354;28;20034;-82
2022/11/29 07:31:10;;;;;;;24.88;13.70;;;3.30;99.90;;;;;;4961012;28;20026;-83
2022/11/29 07:34:01;;;;;;;25.60;13.73;;;3.30;99.90;;;;;;4940919;28;20452;-82
2022/11/29 07:36:44;;;;;;;27.88;13.82;;;3.30;99.90;;;;;;4973562;28;20114;-82
2022/11/29 07:39:25;;;;;;;25.60;14.05;;;3.30;99.90;;;;;;4958109;28;20058;-83
2022/11/29 07:42:19;;;;;;;29.42;15.07;;;3.30;99.90;;;;;;4973946;28;20033;-83
2022/11/29 07:45:13;;;;;;;31.65;15.77;;;3.30;99.90;;;;;;4957985;28;20606;-82
2022/11/29 07:47:39;;;;;;;37.15;15.43;;;3.30;99.90;;;;;;4979017;28;20045;-82
2022/11/29 07:50:05;;;;;;;29.50;15.18;;;3.30;99.90;;;;;;4978860;28;20046;-83
2022/11/29 07:52:32;;;;;;;29.98;14.57;;;3.30;99.90;;;;;;4960633;28;20030;-83
2022/11/29 07:54:58;;;;;;;29.35;14.90;;;3.30;99.90;;;;;;4971366;28;20035;-82
2022/11/29 07:57:24;;;;;;;26.88;13.98;;;3.40;99.90;;;;;;4987592;28;20455;-83
2022/11/29 07:59:50;;;;;;;28.95;15.00;;;3.30;99.90;;;;;;4969158;28;20128;-83
2022/11/29 08:02:26;;;;;;;29.98;13.90;;;3.30;99.90;;;;;;4960982;28;20069;-83
2022/11/29 08:04:52;;;;;;;27.13;13.93;;;3.30;99.90;;;;;;4983687;28;20026;-82
2022/11/29 08:07:17;;;;;;;29.13;14.85;;;3.40;99.90;;;;;;4955191;28;20053;-82
2022/11/29 08:09:43;;;;;;;28.13;15.20;;;3.40;99.90;;;;;;4957033;28;20142;-82
2022/11/29 08:12:09;;;;;;;32.03;16.13;;;3.40;99.90;;;;;;4986806;28;20042;-82
2022/11/29 08:14:34;;;;;;;25.50;13.15;;;3.40;99.90;;;;;;4983443;28;20038;-83
2022/11/29 08:17:00;;;;;;;24.20;13.35;;;3.40;99.90;;;;;;4938032;28;20524;-83
2022/11/29 08:19:26;;;;;;;24.15;13.82;;;3.40;99.90;;;;;;4941036;28;20112;-83
2022/11/29 08:21:52;;;;;;;26.85;14.38;;;3.40;99.90;;;;;;4972559;28;20550;-83
2022/11/29 08:24:18;;;;;;;25.25;13.45;;;3.40;99.90;;;;;;4987885;28;20030;-83
2022/11/29 08:26:44;;;;;;;25.67;14.27;;;3.40;99.90;;;;;;4969902;28;20038;-82
2022/11/29 08:29:10;;;;;;;26.77;13.88;;;3.50;99.90;;;;;;4974349;28;20117;-82
2022/11/29 08:31:35;;;;;;;28.23;14.40;;;3.50;99.90;;;;;;4987902;28;20034;-82
2022/11/29 08:34:05;;;;;;;26.60;14.00;;;3.50;99.90;;;;;;4969799;28;20034;-83
2022/11/29 08:36:31;;;;;;;25.80;14.02;;;3.50;99.90;;;;;;4970415;28;20048;-82
2022/11/29 08:38:56;;;;;;;28.73;15.05;;;3.60;99.90;;;;;;4991318;28;20120;-83
2022/11/29 08:41:22;;;;;;;24.17;12.90;;;3.60;99.90;;;;;;4942316;28;20027;-82
2022/11/29 08:44:04;;;;;;;23.80;13.70;;;3.60;99.90;;;;;;5071492;28;20444;-78
2022/11/29 08:49:14;;;;;;;23.30;13.30;;;3.60;99.90;;;;;;5073872;28;20647;-79
2022/11/29 08:51:40;;;;;;;27.67;14.68;;;3.60;99.90;;;;;;5063982;28;20037;-79
2022/11/29 08:54:05;;;;;;;27.23;13.65;;;3.60;99.90;;;;;;5059041;28;20029;-79
2022/11/29 08:56:31;;;;;;;27.55;14.50;;;3.60;99.90;;;;;;5066750;28;20032;-78
2022/11/29 08:58:57;;;;;;;28.15;14.38;;;3.60;99.90;;;;;;5068103;28;20037;-78
2022/11/29 09:01:23;;;;;;;31.02;15.02;;;3.60;99.90;;;;;;5057975;28;20026;-78
2022/11/29 09:04:09;;;;;;;25.42;14.50;;;3.60;99.90;;;;;;5065630;28;20025;-78
2022/11/29 09:06:41;;;;;;;30.13;14.57;;;3.70;99.90;;;;;;5061010;28;20063;-79
2022/11/29 09:09:07;;;;;;;28.10;14.20;;;3.70;99.90;;;;;;5061614;28;20030;-78
2022/11/29 09:11:34;;;;;;;27.40;13.60;;;3.60;99.90;;;;;;5061400;28;20021;-77
2022/11/29 09:14:03;;;;;;;26.05;13.07;;;3.60;99.90;;;;;;5063368;28;20040;-77
2022/11/29 09:16:33;;;;;;;26.55;13.57;;;3.60;99.90;;;;;;5064161;28;20393;-78
2022/11/29 09:18:59;;;;;;;27.67;14.45;;;3.60;99.90;;;;;;5060999;28;20428;-77
2022/11/29 09:21:27;;;;;;;25.13;13.98;;;3.60;99.90;;;;;;5059539;28;20033;-77
2022/11/29 09:23:57;;;;;;;23.65;13.18;;;3.60;99.90;;;;;;5057641;28;20481;-78
2022/11/29 09:26:26;;;;;;;23.50;12.73;;;3.60;99.90;;;;;;5058900;28;20123;-78
2022/11/29 09:28:53;;;;;;;24.80;13.13;;;3.60;99.90;;;;;;5059661;28;20043;-79
2022/11/29 09:31:19;;;;;;;23.42;13.07;;;3.70;99.90;;;;;;5057084;28;20099;-77
2022/11/29 09:33:45;;;;;;;26.70;13.77;;;3.70;99.90;;;;;;5055060;28;20033;-77
2022/11/29 09:36:11;;;;;;;25.45;13.98;;;3.70;99.90;;;;;;5059197;28;20082;-77
2022/11/29 09:38:38;;;;;;;26.25;14.15;;;3.60;99.90;;;;;;5057894;28;20025;-78
2022/11/29 09:41:18;;;;;;;25.98;13.43;;;3.70;99.90;;;;;;5059045;28;20044;-78
2022/11/29 09:43:59;;;;;;;23.08;13.52;;;3.70;99.90;;;;;;5059548;28;20111;-76
2022/11/29 09:46:31;;;;;;;23.38;13.02;;;3.70;99.90;;;;;;5060503;28;20052;-77
2022/11/29 09:49:10;;;;;;;21.80;12.90;;;3.70;99.90;;;;;;5054572;28;20047;-79
2022/11/29 09:51:53;;;;;;;26.30;13.07;;;3.70;99.90;;;;;;5059381;28;20501;-79
2022/11/29 09:54:53;;;;;;;22.90;12.65;;;3.80;99.90;;;;;;5047117;28;20017;-77
2022/11/29 09:57:22;;;;;;;26.20;13.98;;;3.70;99.90;;;;;;5045170;28;20025;-78
2022/11/29 09:59:53;;;;;;;24.67;12.93;;;3.80;99.90;;;;;;5042981;28;20032;-77
2022/11/29 10:02:31;;;;;;;23.83;12.48;;;3.80;99.90;;;;;;5042915;28;20028;-77
2022/11/29 10:05:32;;;;;;;21.08;12.60;;;3.80;99.90;;;;;;5049366;28;20032;-77
2022/11/29 10:08:06;;;;;;;21.70;13.38;;;3.80;99.90;;;;;;5067039;28;20037;-78
2022/11/29 10:13:14;;;;;;;21.02;13.05;;;3.80;99.90;;;;;;5061379;28;20049;-85
2022/11/29 10:15:44;;;;;;;21.52;12.35;;;3.90;99.90;;;;;;5033143;28;20028;-84
2022/11/29 10:18:14;;;;;;;22.83;13.07;;;3.90;99.90;;;;;;5024346;28;20047;-84
2022/11/29 10:20:43;;;;;;;20.98;11.93;;;4.00;99.90;;;;;;5042560;28;20116;-85
2022/11/29 10:23:33;;;;;;;20.58;12.13;;;4.00;99.90;;;;;;5063195;28;20036;-85
2022/11/29 10:25:59;;;;;;;22.90;12.93;;;4.00;99.90;;;;;;5045320;28;20024;-85
2022/11/29 10:28:30;;;;;;;21.40;12.50;;;4.00;99.90;;;;;;5049555;28;20021;-85
2022/11/29 10:31:01;;;;;;;24.00;13.07;;;4.00;99.90;;;;;;5050312;28;20033;-84
2022/11/29 10:33:29;;;;;;;24.40;13.00;;;4.00;99.90;;;;;;5042666;28;20037;-85
2022/11/29 10:36:03;;;;;;;22.15;12.65;;;4.10;99.90;;;;;;5043654;28;20037;-85
2022/11/29 10:38:29;;;;;;;22.70;11.95;;;4.00;99.90;;;;;;5044735;28;20662;-85
2022/11/29 10:41:08;;;;;;;20.63;13.15;;;4.00;99.90;;;;;;5045440;28;20108;-84
2022/11/29 10:43:36;;;;;;;21.52;12.68;;;4.10;99.90;;;;;;5045720;28;20033;-84
2022/11/29 10:46:03;;;;;;;22.90;13.13;;;4.00;99.90;;;;;;5031217;28;20041;-85
2022/11/29 10:48:32;;;;;;;23.45;12.63;;;4.10;99.90;;;;;;5046725;28;20091;-85
2022/11/29 10:51:00;;;;;;;22.08;11.77;;;4.10;99.90;;;;;;5060060;28;20318;-85
2022/11/29 10:53:35;;;;;;;22.45;12.98;;;4.20;99.90;;;;;;5047176;28;20508;-85
2022/11/29 10:56:07;;;;;;;22.25;13.60;;;4.20;99.90;;;;;;5030641;28;20053;-85
2022/11/29 10:58:34;;;;;;;23.15;12.57;;;4.30;99.90;;;;;;5040566;28;20867;-84
2022/11/29 11:01:07;;;;;;;19.80;12.20;;;4.30;99.90;;;;;;5052608;28;20043;-85
2022/11/29 11:03:43;;;;;;;20.75;12.35;;;4.30;99.90;;;;;;5049269;28;20032;-84
2022/11/29 11:06:11;;;;;;;19.15;11.57;;;4.30;99.90;;;;;;5040770;28;20043;-85
2022/11/29 11:08:41;;;;;;;23.08;12.63;;;4.30;99.90;;;;;;5059403;28;20171;-85
2022/11/29 11:11:08;;;;;;;21.25;11.93;;;4.40;99.90;;;;;;5049304;28;20489;-84
2022/11/29 11:13:34;;;;;;;21.45;12.60;;;4.40;99.90;;;;;;5049349;28;20028;-85
2022/11/29 11:16:13;;;;;;;24.63;13.05;;;4.40;99.90;;;;;;5048001;28;20087;-85
2022/11/29 11:18:39;;;;;;;21.42;12.32;;;4.40;99.90;;;;;;5046903;28;20037;-85
2022/11/29 11:21:10;;;;;;;21.80;12.93;;;4.50;99.90;;;;;;5045206;28;20131;-84
2022/11/29 11:23:42;;;;;;;26.30;13.18;;;4.40;99.90;;;;;;5047556;28;20029;-85
2022/11/29 11:26:10;;;;;;;24.58;13.27;;;4.50;99.90;;;;;;5065100;28;20473;-85
2022/11/29 11:28:58;;;;;;;21.27;12.35;;;4.50;99.90;;;;;;5046111;28;20128;-82
2022/11/29 11:31:33;;;;;;;22.50;12.85;;;4.60;99.90;;;;;;5043863;28;20064;-82
2022/11/29 11:34:25;;;;;;;25.58;12.35;;;4.50;99.90;;;;;;5054259;28;20123;-82
2022/11/29 11:36:52;;;;;;;24.25;13.25;;;4.60;99.90;;;;;;5038160;28;20114;-82
2022/11/29 11:39:20;;;;;;;21.17;11.77;;;4.60;99.90;;;;;;5044965;28;20116;-82
2022/11/29 11:44:48;;;;;;;18.65;11.93;;;4.60;99.90;;;;;;5053917;28;20024;-82
2022/11/29 11:47:26;;;;;;;21.67;11.57;;;4.60;99.90;;;;;;5063214;28;20024;-83
2022/11/29 11:50:06;;;;;;;21.20;12.23;;;4.60;99.90;;;;;;5046263;28;20054;-82
2022/11/29 11:52:38;;;;;;;23.95;12.68;;;4.60;99.90;;;;;;5045488;28;20488;-82
2022/11/29 11:55:19;;;;;;;20.83;12.10;;;4.60;99.90;;;;;;5060592;28;20025;-83
2022/11/29 11:57:47;;;;;;;28.70;14.70;;;4.60;99.90;;;;;;5048635;28;20020;-82
2022/11/29 12:00:46;;;;;;;22.90;13.07;;;4.60;99.90;;;;;;5048550;28;20082;-82
2022/11/29 12:03:32;;;;;;;21.63;13.55;;;4.60;99.90;;;;;;5052273;28;20059;-82
2022/11/29 12:06:19;;;;;;;22.30;12.57;;;4.60;99.90;;;;;;5059983;28;20059;-83
2022/11/29 12:08:47;;;;;;;20.25;11.93;;;4.60;99.90;;;;;;5038419;28;20028;-82
2022/11/29 12:11:16;;;;;;;23.40;12.35;;;4.60;99.90;;;;;;5040328;28;20033;-82
2022/11/29 12:13:52;;;;;;;21.30;11.60;;;4.60;99.90;;;;;;5018252;28;20033;-83
2022/11/29 12:16:33;;;;;;;21.05;11.80;;;4.60;99.90;;;;;;5020235;28;20730;-82
2022/11/29 12:19:17;;;;;;;18.85;11.85;;;4.60;99.90;;;;;;5048465;28;20033;-82
2022/11/29 12:21:51;;;;;;;18.27;10.93;;;4.60;99.90;;;;;;5044857;28;20033;-83
2022/11/29 12:24:27;;;;;;;18.98;11.55;;;4.60;99.90;;;;;;5060079;28;20098;-83
2022/11/29 12:26:57;;;;;;;19.90;11.35;;;4.60;99.90;;;;;;5047722;28;20112;-84
2022/11/29 12:29:27;;;;;;;22.45;11.95;;;4.60;99.90;;;;;;5042661;28;20428;-83
2022/11/29 12:32:26;;;;;;;19.98;11.45;;;4.60;99.90;;;;;;5047456;28;20480;-82
2022/11/29 12:35:13;;;;;;;17.98;10.38;;;4.70;99.90;;;;;;5060986;28;20037;-83
2022/11/29 12:37:55;;;;;;;20.55;12.40;;;4.60;99.90;;;;;;5045369;28;21441;-82
2022/11/29 12:40:53;;;;;;;21.65;12.32;;;4.60;99.90;;;;;;5045552;28;20552;-84
2022/11/29 12:43:39;;;;;;;17.40;10.23;;;4.60;99.90;;;;;;5028475;28;20048;-83
2022/11/29 12:46:27;;;;;;;18.67;10.82;;;4.60;99.90;;;;;;5045830;28;20037;-82
2022/11/29 12:48:53;;;;;;;17.33;10.48;;;4.60;99.90;;;;;;5039200;28;20037;-83
2022/11/29 12:51:34;;;;;;;16.52;10.70;;;4.70;99.90;;;;;;5041786;28;20031;-83
2022/11/29 12:54:06;;;;;;;17.70;9.88;;;4.60;99.90;;;;;;5036212;28;20025;-84
2022/11/29 12:57:11;;;;;;;17.60;10.98;;;4.60;99.90;;;;;;5047179;28;20032;-83
2022/11/29 13:00:14;;;;;;;16.05;10.00;;;4.70;99.90;;;;;;5049336;28;20024;-83
2022/11/29 13:03:02;;;;;;;17.13;10.18;;;4.70;99.90;;;;;;5055559;28;20035;-83
2022/11/29 13:05:42;;;;;;;18.65;10.73;;;4.70;99.90;;;;;;5062951;28;20029;-83
2022/11/29 13:08:26;;;;;;;16.00;10.32;;;4.80;99.90;;;;;;5065736;28;20033;-83
2022/11/29 13:10:59;;;;;;;18.38;11.27;;;4.70;99.90;;;;;;5050535;28;20021;-83
2022/11/29 13:13:40;;;;;;;19.75;11.43;;;4.80;99.90;;;;;;5056006;28;20039;-83
2022/11/29 13:16:30;;;;;;;17.17;10.68;;;4.70;99.90;;;;;;5056840;28;20025;-84
2022/11/29 13:19:06;;;;;;;20.00;11.65;;;4.80;99.90;;;;;;5058728;28;20033;-84
2022/11/29 13:21:50;;;;;;;18.65;10.93;;;4.80;99.90;;;;;;5039928;28;20029;-83
2022/11/29 13:24:40;;;;;;;17.67;10.65;;;4.70;99.90;;;;;;5079871;28;20067;-84
2022/11/29 13:27:22;;;;;;;17.38;10.65;;;4.70;99.90;;;;;;5050131;28;20106;-82
2022/11/29 13:29:48;;;;;;;16.73;10.30;;;4.70;99.90;;;;;;5045014;28;20020;-83
2022/11/29 13:32:36;;;;;;;18.98;10.30;;;4.70;99.90;;;;;;5052793;28;20064;-83
2022/11/29 13:35:14;;;;;;;21.25;10.65;;;4.70;99.90;;;;;;5046372;28;20501;-84